sensor_id;sensor_type;location;lat;lon;timestamp;P1;P2;P0
27143;PMS1003;14672;50.250;8.312;2022-12-07T00:01:25;41.50;37.00;17.00
27143;PMS1003;14672;50.250;8.312;2022-12-07T00:03:55;50.00;43.00;19.00
27143;PMS1003;14672;50.250;8.312;2022-12-07T00:06:29;43.00;37.00;18.00
27143;PMS1003;14672;50.250;8.312;2022-12-07T00:09:04;39.00;35.00;16.00
27143;PMS1003;14672;50.250;8.312;2022-12-07T00:11:32;49.00;39.50;22.50
27143;PMS1003;14672;50.250;8.312;2022-12-07T00:13:59;38.50;32.50;16.50
27143;PMS1003;14672;50.250;8.312;2022-12-07T00:16:30;49.50;42.50;19.00
27143;PMS1003;14672;50.250;8.312;2022-12-07T00:18:58;35.00;31.50;16.50
27143;PMS1003;14672;50.250;8.312;2022-12-07T00:21:26;38.50;33.50;18.00
27143;PMS1003;14672;50.250;8.312;2022-12-07T00:23:55;41.50;37.50;16.50
27143;PMS1003;14672;50.250;8.312;2022-12-07T00:26:25;36.00;34.50;16.50
27143;PMS1003;14672;50.250;8.312;2022-12-07T00:28:58;36.00;34.00;18.00
27143;PMS1003;14672;50.250;8.312;2022-12-07T00:31:29;38.50;36.50;18.00
27143;PMS1003;14672;50.250;8.312;2022-12-07T00:34:04;43.50;40.00;20.50
27143;PMS1003;14672;50.250;8.312;2022-12-07T00:36:31;33.50;32.00;16.00
27143;PMS1003;14672;50.250;8.312;2022-12-07T00:38:58;39.00;32.00;15.00
27143;PMS1003;14672;50.250;8.312;2022-12-07T00:41:25;47.50;38.00;18.00
27143;PMS1003;14672;50.250;8.312;2022-12-07T00:43:53;42.00;36.50;18.50
27143;PMS1003;14672;50.250;8.312;2022-12-07T00:46:19;47.50;42.00;20.00
27143;PMS1003;14672;50.250;8.312;2022-12-07T00:48:46;43.00;39.00;20.50
27143;PMS1003;14672;50.250;8.312;2022-12-07T00:51:14;42.50;40.00;20.00
27143;PMS1003;14672;50.250;8.312;2022-12-07T00:53:42;39.50;32.50;16.00
27143;PMS1003;14672;50.250;8.312;2022-12-07T00:56:10;44.25;36.75;16.25
27143;PMS1003;14672;50.250;8.312;2022-12-07T00:58:39;38.50;35.00;15.50
27143;PMS1003;14672;50.250;8.312;2022-12-07T01:01:06;42.00;35.33;14.00
27143;PMS1003;14672;50.250;8.312;2022-12-07T01:03:33;44.00;39.50;18.00
27143;PMS1003;14672;50.250;8.312;2022-12-07T01:06:00;36.25;32.75;15.00
27143;PMS1003;14672;50.250;8.312;2022-12-07T01:08:28;36.75;36.00;16.25
27143;PMS1003;14672;50.250;8.312;2022-12-07T01:11:01;35.75;33.25;16.75
27143;PMS1003;14672;50.250;8.312;2022-12-07T01:13:32;33.00;32.00;14.00
27143;PMS1003;14672;50.250;8.312;2022-12-07T01:16:00;52.50;44.00;19.00
27143;PMS1003;14672;50.250;8.312;2022-12-07T01:18:30;38.75;35.75;19.00
27143;PMS1003;14672;50.250;8.312;2022-12-07T01:21:00;40.00;39.00;21.50
27143;PMS1003;14672;50.250;8.312;2022-12-07T01:23:31;53.50;40.00;16.00
27143;PMS1003;14672;50.250;8.312;2022-12-07T01:25:57;40.00;36.75;19.75
27143;PMS1003;14672;50.250;8.312;2022-12-07T01:28:26;34.50;32.00;13.50
27143;PMS1003;14672;50.250;8.312;2022-12-07T01:30:59;32.25;31.25;16.25
27143;PMS1003;14672;50.250;8.312;2022-12-07T01:33:32;40.50;36.00;16.50
27143;PMS1003;14672;50.250;8.312;2022-12-07T01:36:04;36.50;33.50;17.00
27143;PMS1003;14672;50.250;8.312;2022-12-07T01:38:40;44.00;35.50;17.00
27143;PMS1003;14672;50.250;8.312;2022-12-07T01:41:06;45.00;41.50;19.00
27143;PMS1003;14672;50.250;8.312;2022-12-07T01:43:32;45.33;35.33;16.00
27143;PMS1003;14672;50.250;8.312;2022-12-07T01:46:00;37.00;33.00;14.00
27143;PMS1003;14672;50.250;8.312;2022-12-07T01:48:38;30.50;30.50;12.50
27143;PMS1003;14672;50.250;8.312;2022-12-07T01:51:11;37.50;30.00;14.00
27143;PMS1003;14672;50.250;8.312;2022-12-07T01:53:40;38.00;33.50;16.50
27143;PMS1003;14672;50.250;8.312;2022-12-07T01:56:11;38.50;31.50;14.50
27143;PMS1003;14672;50.250;8.312;2022-12-07T01:58:43;33.50;26.50;12.00
27143;PMS1003;14672;50.250;8.312;2022-12-07T02:01:10;35.25;30.50;14.25
27143;PMS1003;14672;50.250;8.312;2022-12-07T02:03:40;28.67;27.33;12.00
27143;PMS1003;14672;50.250;8.312;2022-12-07T02:06:09;35.50;34.00;14.00
27143;PMS1003;14672;50.250;8.312;2022-12-07T02:08:41;39.00;32.00;17.00
27143;PMS1003;14672;50.250;8.312;2022-12-07T02:11:07;37.00;31.50;15.00
27143;PMS1003;14672;50.250;8.312;2022-12-07T02:13:35;34.00;30.00;11.00
27143;PMS1003;14672;50.250;8.312;2022-12-07T02:16:08;37.00;30.50;13.00
27143;PMS1003;14672;50.250;8.312;2022-12-07T02:28:12;27.00;24.00;11.00
27143;PMS1003;14672;50.250;8.312;2022-12-07T02:31:04;30.50;27.50;12.50
27143;PMS1003;14672;50.250;8.312;2022-12-07T02:33:40;27.00;26.00;13.00
27143;PMS1003;14672;50.250;8.312;2022-12-07T02:36:17;31.00;26.50;11.50
27143;PMS1003;14672;50.250;8.312;2022-12-07T02:39:00;41.00;38.00;21.00
27143;PMS1003;14672;50.250;8.312;2022-12-07T02:41:36;33.50;29.50;13.50
27143;PMS1003;14672;50.250;8.312;2022-12-07T02:44:19;25.50;25.00;14.00
27143;PMS1003;14672;50.250;8.312;2022-12-07T02:46:51;22.00;19.50;8.00
27143;PMS1003;14672;50.250;8.312;2022-12-07T02:49:24;27.50;24.50;12.00
27143;PMS1003;14672;50.250;8.312;2022-12-07T02:51:53;30.00;26.50;10.00
27143;PMS1003;14672;50.250;8.312;2022-12-07T02:54:20;28.00;22.67;10.00
27143;PMS1003;14672;50.250;8.312;2022-12-07T03:00:05;27.00;25.00;13.00
27143;PMS1003;14672;50.250;8.312;2022-12-07T03:13:34;24.50;22.50;10.50
27143;PMS1003;14672;50.250;8.312;2022-12-07T03:16:17;38.00;30.00;13.00
27143;PMS1003;14672;50.250;8.312;2022-12-07T03:18:52;36.50;32.00;12.00
27143;PMS1003;14672;50.250;8.312;2022-12-07T03:21:31;30.50;27.00;10.00
27143;PMS1003;14672;50.250;8.312;2022-12-07T03:24:04;28.50;24.50;9.00
27143;PMS1003;14672;50.250;8.312;2022-12-07T03:26:38;34.50;30.50;11.50
27143;PMS1003;14672;50.250;8.312;2022-12-07T03:29:19;25.50;22.50;8.00
27143;PMS1003;14672;50.250;8.312;2022-12-07T03:31:52;26.00;25.00;12.00
27143;PMS1003;14672;50.250;8.312;2022-12-07T03:34:32;27.00;24.50;10.00
27143;PMS1003;14672;50.250;8.312;2022-12-07T03:37:07;24.50;22.00;10.00
27143;PMS1003;14672;50.250;8.312;2022-12-07T03:40:23;26.50;24.00;10.50
27143;PMS1003;14672;50.250;8.312;2022-12-07T03:42:38;37.50;33.50;14.50
27143;PMS1003;14672;50.250;8.312;2022-12-07T03:45:04;25.50;24.50;12.50
27143;PMS1003;14672;50.250;8.312;2022-12-07T03:50:14;26.00;23.50;9.00
27143;PMS1003;14672;50.250;8.312;2022-12-07T03:53:18;27.50;22.00;10.00
27143;PMS1003;14672;50.250;8.312;2022-12-07T03:55:54;23.50;23.00;10.00
27143;PMS1003;14672;50.250;8.312;2022-12-07T03:58:22;26.50;23.50;10.00
27143;PMS1003;14672;50.250;8.312;2022-12-07T04:00:50;27.00;26.00;10.50
27143;PMS1003;14672;50.250;8.312;2022-12-07T04:03:16;31.00;28.00;10.00
27143;PMS1003;14672;50.250;8.312;2022-12-07T04:05:42;26.00;25.33;12.00
27143;PMS1003;14672;50.250;8.312;2022-12-07T04:08:09;28.50;24.50;11.50
27143;PMS1003;14672;50.250;8.312;2022-12-07T04:10:35;24.50;22.50;11.50
27143;PMS1003;14672;50.250;8.312;2022-12-07T04:13:00;27.00;21.67;9.00
27143;PMS1003;14672;50.250;8.312;2022-12-07T04:15:26;22.00;20.50;9.50
27143;PMS1003;14672;50.250;8.312;2022-12-07T04:17:53;22.67;22.00;10.00
27143;PMS1003;14672;50.250;8.312;2022-12-07T04:20:20;26.50;24.00;9.50
27143;PMS1003;14672;50.250;8.312;2022-12-07T04:22:46;32.25;24.25;9.75
27143;PMS1003;14672;50.250;8.312;2022-12-07T04:25:12;26.00;24.00;12.00
27143;PMS1003;14672;50.250;8.312;2022-12-07T04:27:37;23.33;20.67;8.00
27143;PMS1003;14672;50.250;8.312;2022-12-07T04:30:03;34.00;26.67;10.67
27143;PMS1003;14672;50.250;8.312;2022-12-07T04:32:31;27.50;24.00;11.50
27143;PMS1003;14672;50.250;8.312;2022-12-07T04:34:57;30.00;23.00;11.00
27143;PMS1003;14672;50.250;8.312;2022-12-07T04:37:23;19.33;19.33;10.00
27143;PMS1003;14672;50.250;8.312;2022-12-07T04:39:49;26.50;25.00;10.00
27143;PMS1003;14672;50.250;8.312;2022-12-07T04:42:15;32.25;27.75;13.00
27143;PMS1003;14672;50.250;8.312;2022-12-07T04:44:41;30.75;29.75;12.25
27143;PMS1003;14672;50.250;8.312;2022-12-07T04:47:07;23.33;23.33;12.00
27143;PMS1003;14672;50.250;8.312;2022-12-07T04:49:32;28.67;23.00;9.33
27143;PMS1003;14672;50.250;8.312;2022-12-07T04:51:58;26.67;25.33;12.00
27143;PMS1003;14672;50.250;8.312;2022-12-07T04:54:24;26.00;24.67;12.00
27143;PMS1003;14672;50.250;8.312;2022-12-07T04:56:50;28.00;22.00;12.00
27143;PMS1003;14672;50.250;8.312;2022-12-07T04:59:16;28.67;23.33;12.00
27143;PMS1003;14672;50.250;8.312;2022-12-07T05:01:42;35.25;27.75;11.75
27143;PMS1003;14672;50.250;8.312;2022-12-07T05:04:09;25.25;24.00;12.25
27143;PMS1003;14672;50.250;8.312;2022-12-07T05:06:35;35.00;34.50;15.75
27143;PMS1003;14672;50.250;8.312;2022-12-07T05:09:01;35.33;33.33;16.33
27143;PMS1003;14672;50.250;8.312;2022-12-07T05:11:28;37.75;31.75;16.25
27143;PMS1003;14672;50.250;8.312;2022-12-07T05:16:45;35.75;33.25;16.00
27143;PMS1003;14672;50.250;8.312;2022-12-07T05:19:14;35.00;31.25;14.00
27143;PMS1003;14672;50.250;8.312;2022-12-07T05:21:41;42.75;37.00;16.25
27143;PMS1003;14672;50.250;8.312;2022-12-07T05:24:07;34.00;28.33;15.33
27143;PMS1003;14672;50.250;8.312;2022-12-07T05:26:36;31.25;26.75;10.75
27143;PMS1003;14672;50.250;8.312;2022-12-07T05:29:02;34.00;30.00;14.00
27143;PMS1003;14672;50.250;8.312;2022-12-07T05:31:29;24.25;22.25;11.75
27143;PMS1003;14672;50.250;8.312;2022-12-07T05:33:55;25.33;25.33;13.67
27143;PMS1003;14672;50.250;8.312;2022-12-07T05:36:21;29.33;26.00;12.00
27143;PMS1003;14672;50.250;8.312;2022-12-07T05:38:47;36.00;30.50;13.75
27143;PMS1003;14672;50.250;8.312;2022-12-07T05:41:14;34.33;31.33;16.00
27143;PMS1003;14672;50.250;8.312;2022-12-07T05:44:03;42.00;32.25;16.25
27143;PMS1003;14672;50.250;8.312;2022-12-07T05:46:29;37.50;36.00;19.75
27143;PMS1003;14672;50.250;8.312;2022-12-07T05:48:55;38.33;33.67;18.00
27143;PMS1003;14672;50.250;8.312;2022-12-07T05:51:21;38.67;35.00;18.00
27143;PMS1003;14672;50.250;8.312;2022-12-07T05:53:47;39.25;33.75;15.75
27143;PMS1003;14672;50.250;8.312;2022-12-07T05:56:13;40.67;36.33;18.00
27143;PMS1003;14672;50.250;8.312;2022-12-07T05:58:39;47.00;34.33;14.00
27143;PMS1003;14672;50.250;8.312;2022-12-07T06:01:23;42.75;36.25;18.75
27143;PMS1003;14672;50.250;8.312;2022-12-07T06:03:48;40.00;40.00;20.33
27143;PMS1003;14672;50.250;8.312;2022-12-07T06:06:14;36.33;35.00;16.00
27143;PMS1003;14672;50.250;8.312;2022-12-07T06:08:40;37.67;34.00;16.00
27143;PMS1003;14672;50.250;8.312;2022-12-07T06:11:05;31.00;26.00;13.67
27143;PMS1003;14672;50.250;8.312;2022-12-07T06:13:49;36.25;30.75;14.25
27143;PMS1003;14672;50.250;8.312;2022-12-07T06:16:15;37.67;30.00;14.67
27143;PMS1003;14672;50.250;8.312;2022-12-07T06:18:41;25.00;24.00;11.33
27143;PMS1003;14672;50.250;8.312;2022-12-07T06:21:07;35.33;30.00;15.00
27143;PMS1003;14672;50.250;8.312;2022-12-07T06:23:32;33.00;28.67;14.00
27143;PMS1003;14672;50.250;8.312;2022-12-07T06:25:58;27.67;26.00;14.00
27143;PMS1003;14672;50.250;8.312;2022-12-07T06:28:24;32.33;24.33;12.00
27143;PMS1003;14672;50.250;8.312;2022-12-07T06:30:59;29.25;23.25;10.75
27143;PMS1003;14672;50.250;8.312;2022-12-07T06:33:27;26.75;25.25;14.00
27143;PMS1003;14672;50.250;8.312;2022-12-07T06:35:53;31.25;25.75;11.75
27143;PMS1003;14672;50.250;8.312;2022-12-07T06:38:20;30.75;27.75;11.75
27143;PMS1003;14672;50.250;8.312;2022-12-07T06:40:46;32.25;27.25;11.75
27143;PMS1003;14672;50.250;8.312;2022-12-07T06:43:13;35.00;30.75;13.75
27143;PMS1003;14672;50.250;8.312;2022-12-07T06:45:38;28.67;25.33;12.00
27143;PMS1003;14672;50.250;8.312;2022-12-07T06:48:06;24.25;21.75;10.75
27143;PMS1003;14672;50.250;8.312;2022-12-07T06:50:31;21.33;19.33;9.33
27143;PMS1003;14672;50.250;8.312;2022-12-07T06:52:57;21.33;21.33;9.00
27143;PMS1003;14672;50.250;8.312;2022-12-07T06:55:23;25.67;23.67;12.67
27143;PMS1003;14672;50.250;8.312;2022-12-07T06:57:49;24.00;22.67;10.00
27143;PMS1003;14672;50.250;8.312;2022-12-07T07:00:14;25.33;24.00;10.67
27143;PMS1003;14672;50.250;8.312;2022-12-07T07:02:41;31.25;24.50;10.50
27143;PMS1003;14672;50.250;8.312;2022-12-07T07:05:07;32.33;27.00;14.67
27143;PMS1003;14672;50.250;8.312;2022-12-07T07:07:33;24.00;22.00;12.25
27143;PMS1003;14672;50.250;8.312;2022-12-07T07:09:59;24.00;22.00;10.00
27143;PMS1003;14672;50.250;8.312;2022-12-07T07:12:24;24.33;23.33;10.00
27143;PMS1003;14672;50.250;8.312;2022-12-07T07:14:50;21.33;21.33;10.00
27143;PMS1003;14672;50.250;8.312;2022-12-07T07:17:16;24.67;22.00;10.00
27143;PMS1003;14672;50.250;8.312;2022-12-07T07:19:41;30.33;24.00;12.00
27143;PMS1003;14672;50.250;8.312;2022-12-07T07:22:07;22.00;22.00;8.00
27143;PMS1003;14672;50.250;8.312;2022-12-07T07:24:33;29.67;24.00;10.00
27143;PMS1003;14672;50.250;8.312;2022-12-07T07:26:58;30.67;28.00;12.00
27143;PMS1003;14672;50.250;8.312;2022-12-07T07:29:24;24.67;22.00;11.00
27143;PMS1003;14672;50.250;8.312;2022-12-07T07:31:50;22.67;22.00;10.00
27143;PMS1003;14672;50.250;8.312;2022-12-07T07:34:16;19.67;17.67;7.33
27143;PMS1003;14672;50.250;8.312;2022-12-07T07:36:41;25.33;23.33;11.00
27143;PMS1003;14672;50.250;8.312;2022-12-07T07:39:07;24.00;24.00;8.00
27143;PMS1003;14672;50.250;8.312;2022-12-07T07:41:37;20.25;19.25;8.25
27143;PMS1003;14672;50.250;8.312;2022-12-07T07:44:03;25.50;24.25;11.75
27143;PMS1003;14672;50.250;8.312;2022-12-07T07:46:29;25.00;24.00;8.00
27143;PMS1003;14672;50.250;8.312;2022-12-07T07:48:55;20.67;20.67;10.00
27143;PMS1003;14672;50.250;8.312;2022-12-07T07:51:21;29.33;28.67;14.67
27143;PMS1003;14672;50.250;8.312;2022-12-07T07:53:46;34.33;32.00;13.00
27143;PMS1003;14672;50.250;8.312;2022-12-07T07:56:12;51.33;50.67;26.00
27143;PMS1003;14672;50.250;8.312;2022-12-07T07:58:38;36.00;31.67;16.00
27143;PMS1003;14672;50.250;8.312;2022-12-07T08:01:07;57.33;47.00;24.00
27143;PMS1003;14672;50.250;8.312;2022-12-07T08:03:33;45.50;38.75;20.25
27143;PMS1003;14672;50.250;8.312;2022-12-07T08:06:01;37.25;33.00;16.25
27143;PMS1003;14672;50.250;8.312;2022-12-07T08:08:28;34.75;32.50;15.75
27143;PMS1003;14672;50.250;8.312;2022-12-07T08:10:54;34.00;28.25;13.00
27143;PMS1003;14672;50.250;8.312;2022-12-07T08:13:20;30.00;30.00;15.67
27143;PMS1003;14672;50.250;8.312;2022-12-07T08:15:47;35.75;35.75;19.25
27143;PMS1003;14672;50.250;8.312;2022-12-07T08:18:13;34.75;31.75;14.25
27143;PMS1003;14672;50.250;8.312;2022-12-07T08:20:40;34.50;32.00;17.00
27143;PMS1003;14672;50.250;8.312;2022-12-07T08:23:07;35.25;31.75;14.75
27143;PMS1003;14672;50.250;8.312;2022-12-07T08:25:37;45.50;42.00;23.50
27143;PMS1003;14672;50.250;8.312;2022-12-07T08:28:03;53.50;47.75;27.75
27143;PMS1003;14672;50.250;8.312;2022-12-07T08:30:29;55.00;45.25;25.75
27143;PMS1003;14672;50.250;8.312;2022-12-07T08:32:56;32.75;32.00;18.00
27143;PMS1003;14672;50.250;8.312;2022-12-07T08:35:22;29.75;27.50;13.50
27143;PMS1003;14672;50.250;8.312;2022-12-07T08:37:48;40.75;36.00;18.75
27143;PMS1003;14672;50.250;8.312;2022-12-07T08:40:14;43.33;37.67;17.33
27143;PMS1003;14672;50.250;8.312;2022-12-07T08:42:44;43.00;40.75;22.00
27143;PMS1003;14672;50.250;8.312;2022-12-07T08:45:16;89.20;67.20;41.40
27143;PMS1003;14672;50.250;8.312;2022-12-07T08:47:50;47.00;43.50;24.50
27143;PMS1003;14672;50.250;8.312;2022-12-07T08:50:27;44.25;37.75;21.25
27143;PMS1003;14672;50.250;8.312;2022-12-07T08:55:22;36.50;30.75;17.75
27143;PMS1003;14672;50.250;8.312;2022-12-07T08:57:49;37.50;34.50;18.50
27143;PMS1003;14672;50.250;8.312;2022-12-07T09:00:16;30.25;27.25;11.00
27143;PMS1003;14672;50.250;8.312;2022-12-07T09:02:43;27.75;25.00;9.75
27143;PMS1003;14672;50.250;8.312;2022-12-07T09:05:10;23.50;21.00;10.25
27143;PMS1003;14672;50.250;8.312;2022-12-07T09:07:40;29.25;24.00;10.00
27143;PMS1003;14672;50.250;8.312;2022-12-07T09:10:08;25.25;25.25;12.25
27143;PMS1003;14672;50.250;8.312;2022-12-07T09:12:35;33.00;27.00;10.25
27143;PMS1003;14672;50.250;8.312;2022-12-07T09:15:01;24.33;24.00;12.00
27143;PMS1003;14672;50.250;8.312;2022-12-07T09:17:27;22.25;21.00;10.75
27143;PMS1003;14672;50.250;8.312;2022-12-07T09:19:57;26.00;24.50;13.00
27143;PMS1003;14672;50.250;8.312;2022-12-07T09:22:23;28.67;27.00;13.00
27143;PMS1003;14672;50.250;8.312;2022-12-07T09:24:48;43.33;39.33;16.00
27143;PMS1003;14672;50.250;8.312;2022-12-07T09:27:14;22.00;20.00;11.33
27143;PMS1003;14672;50.250;8.312;2022-12-07T09:29:42;27.50;25.75;12.50
27143;PMS1003;14672;50.250;8.312;2022-12-07T09:32:08;56.00;52.00;24.33
27143;PMS1003;14672;50.250;8.312;2022-12-07T09:34:34;31.67;28.33;12.00
27143;PMS1003;14672;50.250;8.312;2022-12-07T09:37:00;27.00;25.33;9.00
27143;PMS1003;14672;50.250;8.312;2022-12-07T09:39:28;29.50;23.75;12.50
27143;PMS1003;14672;50.250;8.312;2022-12-07T09:41:54;20.75;17.75;8.25
27143;PMS1003;14672;50.250;8.312;2022-12-07T09:44:23;26.00;22.00;12.33
27143;PMS1003;14672;50.250;8.312;2022-12-07T09:46:51;18.00;16.50;7.25
27143;PMS1003;14672;50.250;8.312;2022-12-07T09:49:19;19.75;17.75;7.00
27143;PMS1003;14672;50.250;8.312;2022-12-07T09:51:58;22.25;19.25;9.00
27143;PMS1003;14672;50.250;8.312;2022-12-07T09:54:28;21.25;16.75;6.25
27143;PMS1003;14672;50.250;8.312;2022-12-07T09:56:55;17.00;15.00;7.00
27143;PMS1003;14672;50.250;8.312;2022-12-07T09:59:21;18.00;17.33;7.33
27143;PMS1003;14672;50.250;8.312;2022-12-07T10:01:48;18.75;16.75;7.25
27143;PMS1003;14672;50.250;8.312;2022-12-07T10:04:16;21.00;17.00;7.00
27143;PMS1003;14672;50.250;8.312;2022-12-07T10:06:50;21.50;16.25;7.50
27143;PMS1003;14672;50.250;8.312;2022-12-07T10:09:18;21.75;17.00;7.00
27143;PMS1003;14672;50.250;8.312;2022-12-07T10:12:03;18.25;16.25;7.25
27143;PMS1003;14672;50.250;8.312;2022-12-07T10:14:36;18.00;17.00;6.50
27143;PMS1003;14672;50.250;8.312;2022-12-07T10:20:24;22.75;19.25;7.75
27143;PMS1003;14672;50.250;8.312;2022-12-07T10:25:33;12.00;12.00;4.25
27143;PMS1003;14672;50.250;8.312;2022-12-07T10:30:45;16.75;16.75;7.75
27143;PMS1003;14672;50.250;8.312;2022-12-07T10:39:10;22.75;21.00;7.75
27143;PMS1003;14672;50.250;8.312;2022-12-07T10:44:29;17.50;15.00;7.25
27143;PMS1003;14672;50.250;8.312;2022-12-07T10:47:05;25.50;23.50;9.25
27143;PMS1003;14672;50.250;8.312;2022-12-07T11:18:11;25.75;23.25;9.75
27143;PMS1003;14672;50.250;8.312;2022-12-07T11:21:04;22.75;21.00;9.00
27143;PMS1003;14672;50.250;8.312;2022-12-07T11:29:20;29.50;27.75;12.25
27143;PMS1003;14672;50.250;8.312;2022-12-07T11:37:34;23.50;22.00;7.00
27143;PMS1003;14672;50.250;8.312;2022-12-07T11:40:03;21.50;16.50;5.75
27143;PMS1003;14672;50.250;8.312;2022-12-07T11:42:43;13.00;13.00;5.75
27143;PMS1003;14672;50.250;8.312;2022-12-07T11:45:26;14.75;13.00;3.00
27143;PMS1003;14672;50.250;8.312;2022-12-07T11:47:58;10.00;10.00;2.50
27143;PMS1003;14672;50.250;8.312;2022-12-07T11:50:51;11.75;11.00;3.00
27143;PMS1003;14672;50.250;8.312;2022-12-07T11:53:38;26.75;24.50;11.50
27143;PMS1003;14672;50.250;8.312;2022-12-07T11:56:14;13.00;11.50;4.50
27143;PMS1003;14672;50.250;8.312;2022-12-07T12:04:58;14.25;12.25;3.75
27143;PMS1003;14672;50.250;8.312;2022-12-07T12:07:40;13.50;12.25;3.75
27143;PMS1003;14672;50.250;8.312;2022-12-07T12:16:04;12.75;10.75;1.75
27143;PMS1003;14672;50.250;8.312;2022-12-07T12:21:45;13.75;10.75;4.25
27143;PMS1003;14672;50.250;8.312;2022-12-07T12:24:19;13.00;13.00;3.50
27143;PMS1003;14672;50.250;8.312;2022-12-07T12:26:52;13.00;11.00;3.00
27143;PMS1003;14672;50.250;8.312;2022-12-07T12:29:40;13.25;13.25;5.75
27143;PMS1003;14672;50.250;8.312;2022-12-07T12:35:17;11.00;9.25;1.75
27143;PMS1003;14672;50.250;8.312;2022-12-07T12:37:48;23.00;13.50;5.00
27143;PMS1003;14672;50.250;8.312;2022-12-07T12:42:46;14.67;13.00;5.00
27143;PMS1003;14672;50.250;8.312;2022-12-07T12:45:21;9.50;9.00;3.00
27143;PMS1003;14672;50.250;8.312;2022-12-07T12:55:43;13.50;13.00;4.50
27143;PMS1003;14672;50.250;8.312;2022-12-07T12:58:28;15.25;14.00;6.25
27143;PMS1003;14672;50.250;8.312;2022-12-07T13:04:00;12.50;12.50;3.75
27143;PMS1003;14672;50.250;8.312;2022-12-07T13:08:53;9.00;9.00;3.00
27143;PMS1003;14672;50.250;8.312;2022-12-07T13:11:56;15.25;15.00;4.75
27143;PMS1003;14672;50.250;8.312;2022-12-07T13:20:01;16.00;12.50;4.50
27143;PMS1003;14672;50.250;8.312;2022-12-07T13:24:59;17.67;14.67;6.67
27143;PMS1003;14672;50.250;8.312;2022-12-07T13:27:50;14.00;14.00;5.00
27143;PMS1003;14672;50.250;8.312;2022-12-07T13:30:45;11.25;10.25;2.25
27143;PMS1003;14672;50.250;8.312;2022-12-07T13:33:25;16.50;14.50;4.50
27143;PMS1003;14672;50.250;8.312;2022-12-07T13:35:54;13.00;13.00;5.00
27143;PMS1003;14672;50.250;8.312;2022-12-07T13:38:25;17.25;15.25;3.00
27143;PMS1003;14672;50.250;8.312;2022-12-07T13:46:19;8.50;8.50;2.50
27143;PMS1003;14672;50.250;8.312;2022-12-07T13:48:55;7.75;7.75;1.00
27143;PMS1003;14672;50.250;8.312;2022-12-07T13:53:54;15.00;15.00;6.50
27143;PMS1003;14672;50.250;8.312;2022-12-07T13:56:34;23.75;19.75;7.25
27143;PMS1003;14672;50.250;8.312;2022-12-07T13:59:01;17.75;14.50;5.00
27143;PMS1003;14672;50.250;8.312;2022-12-07T14:01:32;24.75;23.00;11.25
27143;PMS1003;14672;50.250;8.312;2022-12-07T14:04:28;20.50;20.00;6.50
27143;PMS1003;14672;50.250;8.312;2022-12-07T14:07:18;13.50;13.50;5.00
27143;PMS1003;14672;50.250;8.312;2022-12-07T14:12:58;8.50;8.50;2.00
27143;PMS1003;14672;50.250;8.312;2022-12-07T14:15:29;10.75;9.75;1.50
27143;PMS1003;14672;50.250;8.312;2022-12-07T14:17:58;44.25;41.00;18.75
27143;PMS1003;14672;50.250;8.312;2022-12-07T14:23:00;123.60;91.20;54.60
27143;PMS1003;14672;50.250;8.312;2022-12-07T14:25:44;164.00;126.00;66.25
27143;PMS1003;14672;50.250;8.312;2022-12-07T14:28:25;85.20;65.40;36.80
27143;PMS1003;14672;50.250;8.312;2022-12-07T14:30:57;29.25;26.50;15.00
27143;PMS1003;14672;50.250;8.312;2022-12-07T14:33:23;25.25;24.50;13.00
27143;PMS1003;14672;50.250;8.312;2022-12-07T14:35:50;21.50;20.25;10.00
27143;PMS1003;14672;50.250;8.312;2022-12-07T14:38:20;20.75;20.50;9.75
27143;PMS1003;14672;50.250;8.312;2022-12-07T14:40:49;24.75;24.75;11.00
27143;PMS1003;14672;50.250;8.312;2022-12-07T14:43:17;25.50;23.25;12.25
27143;PMS1003;14672;50.250;8.312;2022-12-07T14:45:44;41.50;40.00;20.75
27143;PMS1003;14672;50.250;8.312;2022-12-07T14:48:12;47.25;41.00;22.50
27143;PMS1003;14672;50.250;8.312;2022-12-07T14:50:49;44.25;36.25;16.25
27143;PMS1003;14672;50.250;8.312;2022-12-07T14:53:18;22.75;19.25;6.25
27143;PMS1003;14672;50.250;8.312;2022-12-07T14:55:50;16.75;15.00;3.00
27143;PMS1003;14672;50.250;8.312;2022-12-07T14:58:19;15.00;12.25;4.25
27143;PMS1003;14672;50.250;8.312;2022-12-07T15:00:45;14.75;11.00;3.25
27143;PMS1003;14672;50.250;8.312;2022-12-07T15:03:12;10.75;9.75;2.50
27143;PMS1003;14672;50.250;8.312;2022-12-07T15:08:18;10.50;10.00;3.25
27143;PMS1003;14672;50.250;8.312;2022-12-07T15:10:44;16.33;14.33;5.33
27143;PMS1003;14672;50.250;8.312;2022-12-07T15:13:09;26.67;23.67;12.67
27143;PMS1003;14672;50.250;8.312;2022-12-07T15:15:54;99.40;71.20;42.60
27143;PMS1003;14672;50.250;8.312;2022-12-07T15:18:20;75.50;61.25;36.50
27143;PMS1003;14672;50.250;8.312;2022-12-07T15:20:48;64.00;56.25;28.75
27143;PMS1003;14672;50.250;8.312;2022-12-07T15:23:14;21.00;21.00;7.00
27143;PMS1003;14672;50.250;8.312;2022-12-07T15:25:44;9.00;7.33;3.00
27143;PMS1003;14672;50.250;8.312;2022-12-07T15:28:13;15.25;15.25;5.25
27143;PMS1003;14672;50.250;8.312;2022-12-07T15:30:40;12.25;12.25;4.25
27143;PMS1003;14672;50.250;8.312;2022-12-07T15:33:08;17.00;17.00;6.75
27143;PMS1003;14672;50.250;8.312;2022-12-07T15:35:38;11.75;11.50;5.00
27143;PMS1003;14672;50.250;8.312;2022-12-07T15:38:09;17.25;14.25;5.75
27143;PMS1003;14672;50.250;8.312;2022-12-07T15:40:35;13.00;13.00;6.00
27143;PMS1003;14672;50.250;8.312;2022-12-07T15:43:01;16.75;14.25;6.25
27143;PMS1003;14672;50.250;8.312;2022-12-07T15:45:27;80.80;66.00;38.20
27143;PMS1003;14672;50.250;8.312;2022-12-07T15:47:53;78.50;66.00;33.75
27143;PMS1003;14672;50.250;8.312;2022-12-07T15:50:20;26.25;24.50;11.00
27143;PMS1003;14672;50.250;8.312;2022-12-07T15:52:47;29.75;27.25;13.75
27143;PMS1003;14672;50.250;8.312;2022-12-07T15:55:13;22.25;21.75;10.25
27143;PMS1003;14672;50.250;8.312;2022-12-07T15:57:39;14.33;13.00;4.00
27143;PMS1003;14672;50.250;8.312;2022-12-07T16:00:06;21.00;20.50;8.50
27143;PMS1003;14672;50.250;8.312;2022-12-07T16:02:36;44.50;42.00;21.75
27143;PMS1003;14672;50.250;8.312;2022-12-07T16:05:02;24.25;22.75;10.25
27143;PMS1003;14672;50.250;8.312;2022-12-07T16:07:28;13.50;13.25;5.50
27143;PMS1003;14672;50.250;8.312;2022-12-07T16:09:54;19.33;19.33;8.00
27143;PMS1003;14672;50.250;8.312;2022-12-07T16:12:20;14.50;13.75;6.25
27143;PMS1003;14672;50.250;8.312;2022-12-07T16:14:45;9.00;9.00;4.00
27143;PMS1003;14672;50.250;8.312;2022-12-07T16:17:11;52.67;48.00;24.00
27143;PMS1003;14672;50.250;8.312;2022-12-07T16:19:37;12.00;12.00;4.00
27143;PMS1003;14672;50.250;8.312;2022-12-07T16:22:04;10.25;10.25;3.75
27143;PMS1003;14672;50.250;8.312;2022-12-07T16:24:31;9.75;9.75;2.50
27143;PMS1003;14672;50.250;8.312;2022-12-07T16:26:57;9.75;9.75;3.75
27143;PMS1003;14672;50.250;8.312;2022-12-07T16:29:23;12.00;10.00;4.00
27143;PMS1003;14672;50.250;8.312;2022-12-07T16:31:49;10.50;10.50;3.75
27143;PMS1003;14672;50.250;8.312;2022-12-07T16:34:16;10.75;9.75;2.25